Terminal Aerodrome Forecast
Issued by NWS

Home | Current Version | Previous Version | Text Only | Print | Product List | Glossary On
Versions: 1 2 3 4 5 6 7 8 9 10 11 12 13 14 15 16 17 18 19 20 21 22 23 24 25 26 27 28 29
000
FTAK31 PAFA 261009 AAB
TAFAFA
TAF AMD
PAFA 261009Z 2610/2712 00000KT 2SM -SN BR OVC015
      TEMPO 2610/2612 3/4SM -SN BR
     FM261300 VRB04KT P6SM VCSH SCT015 BKN025 OVC040=

USA.gov is the U.S. government's official web portal to all federal, state and local government web resources and services.